Time;durP1;ratioP1;P1;durP2;ratioP2;P2;SDS_P1;SDS_P2;PMS_P1;PMS_P2;Temp;Humidity;BMP_temperature;BMP_pressure;BME280_temperature;BME280_humidity;BME280_pressure;Samples;Min_cycle;Max_cycle;Signal;HPM_P1;HPM_P2
2023/05/21 00:02:10;;;;;;;30.15;19.75;;;12.80;99.90;;;;;;5014350;28;20073;-62
2023/05/21 00:04:39;;;;;;;28.60;18.65;;;12.80;99.90;;;;;;5014743;28;20037;-62
2023/05/21 00:07:07;;;;;;;31.52;19.48;;;12.80;99.90;;;;;;5014640;28;20472;-62
2023/05/21 00:09:34;;;;;;;32.08;20.00;;;12.80;99.90;;;;;;5014477;28;20427;-62
2023/05/21 00:12:00;;;;;;;30.02;19.00;;;12.80;99.90;;;;;;5014281;28;20050;-62
2023/05/21 00:14:26;;;;;;;28.80;18.90;;;12.70;99.90;;;;;;5014549;28;20140;-62
2023/05/21 00:16:51;;;;;;;30.13;18.80;;;12.70;99.90;;;;;;5017325;28;20058;-62
2023/05/21 00:19:17;;;;;;;31.95;18.38;;;12.50;99.90;;;;;;5018746;28;20451;-62
2023/05/21 00:21:44;;;;;;;27.77;18.33;;;12.50;99.90;;;;;;5018492;28;20040;-62
2023/05/21 00:24:10;;;;;;;31.45;19.05;;;12.50;99.90;;;;;;5018409;28;20483;-62
2023/05/21 00:26:37;;;;;;;35.35;19.90;;;12.40;99.90;;;;;;5018367;28;20030;-62
2023/05/21 00:29:03;;;;;;;34.25;20.33;;;12.40;99.90;;;;;;5018251;28;20060;-62
2023/05/21 00:31:29;;;;;;;28.48;18.48;;;12.40;99.90;;;;;;5018431;28;20355;-62
2023/05/21 00:33:55;;;;;;;29.85;19.35;;;12.40;99.90;;;;;;5000907;28;20030;-62
2023/05/21 00:36:22;;;;;;;32.20;19.85;;;12.40;99.90;;;;;;5000679;28;20467;-62
2023/05/21 00:38:50;;;;;;;30.75;19.60;;;12.30;99.90;;;;;;5000696;28;20029;-62
2023/05/21 00:41:17;;;;;;;31.38;18.20;;;12.30;99.90;;;;;;5000597;28;20045;-62
2023/05/21 00:43:43;;;;;;;26.65;19.13;;;12.20;99.90;;;;;;5000729;28;20037;-62
2023/05/21 00:46:18;;;;;;;31.75;18.45;;;12.30;99.90;;;;;;5000367;28;20034;-62
2023/05/21 00:48:45;;;;;;;28.52;18.70;;;12.20;99.90;;;;;;5018037;28;20033;-62
2023/05/21 00:51:13;;;;;;;30.60;18.40;;;12.20;99.90;;;;;;5000515;28;20091;-62
2023/05/21 00:53:40;;;;;;;29.65;18.65;;;12.30;99.90;;;;;;5018257;28;20117;-61
2023/05/21 00:56:06;;;;;;;29.23;18.27;;;12.30;99.90;;;;;;5017994;28;20108;-62
2023/05/21 00:58:33;;;;;;;30.48;19.05;;;12.30;99.90;;;;;;5017847;28;20026;-62
2023/05/21 01:01:05;;;;;;;42.15;19.45;;;12.30;99.90;;;;;;5000315;28;20038;-61
2023/05/21 01:03:37;;;;;;;31.70;19.83;;;12.20;99.90;;;;;;5000149;28;20034;-62
2023/05/21 01:06:07;;;;;;;29.80;18.67;;;12.10;99.90;;;;;;5017762;28;20085;-62
2023/05/21 01:08:36;;;;;;;30.13;17.55;;;12.10;99.90;;;;;;5017676;28;20030;-62
2023/05/21 01:11:07;;;;;;;30.13;19.92;;;12.00;99.90;;;;;;5017374;28;20372;-62
2023/05/21 01:13:35;;;;;;;;;;;12.00;99.90;;;;;;5018127;28;20026;-62
2023/05/21 01:16:05;;;;;;;32.30;17.92;;;11.90;99.90;;;;;;5017583;28;20346;-62
2023/05/21 01:18:33;;;;;;;31.00;18.10;;;11.80;99.90;;;;;;5000055;28;20526;-62
2023/05/21 01:21:01;;;;;;;30.08;18.23;;;11.80;99.90;;;;;;4999758;28;20038;-62
2023/05/21 01:23:28;;;;;;;30.05;19.08;;;11.80;99.90;;;;;;4999904;28;20030;-61
2023/05/21 01:25:54;;;;;;;30.35;19.38;;;11.80;99.90;;;;;;4999844;28;20022;-61
2023/05/21 01:28:20;;;;;;;35.55;19.75;;;11.80;99.90;;;;;;5015814;28;20038;-61
2023/05/21 01:30:46;;;;;;;36.22;18.85;;;11.80;99.90;;;;;;4999763;28;20109;-62
2023/05/21 01:33:35;;;;;;;26.05;17.75;;;11.70;99.90;;;;;;4999747;28;20033;-61
2023/05/21 01:36:23;;;;;;;34.65;17.92;;;11.70;99.90;;;;;;4999541;28;20037;-62
2023/05/21 01:39:11;;;;;;;32.08;18.70;;;11.70;99.90;;;;;;5017094;28;20056;-62
2023/05/21 01:41:42;;;;;;;29.55;19.05;;;11.70;99.90;;;;;;5017144;28;20026;-61
2023/05/21 01:44:09;;;;;;;32.63;20.27;;;11.70;99.90;;;;;;4999246;28;20056;-61
2023/05/21 01:46:37;;;;;;;35.30;19.08;;;11.60;99.90;;;;;;5017071;28;20157;-62
2023/05/21 01:49:05;;;;;;;35.67;20.90;;;11.60;99.90;;;;;;5016932;28;20014;-62
2023/05/21 01:51:32;;;;;;;29.27;18.42;;;11.70;99.90;;;;;;5016953;28;20036;-62
2023/05/21 01:53:58;;;;;;;30.38;19.58;;;11.60;99.90;;;;;;4999508;28;20053;-62
2023/05/21 01:56:24;;;;;;;33.90;20.90;;;11.60;99.90;;;;;;4999194;28;20068;-62
2023/05/21 01:58:51;;;;;;;29.80;19.55;;;11.40;99.90;;;;;;4999219;28;20037;-62
2023/05/21 02:01:18;;;;;;;34.88;19.02;;;11.40;99.90;;;;;;4999316;28;20029;-61
2023/05/21 02:03:44;;;;;;;25.45;17.63;;;11.30;99.90;;;;;;4998977;28;20376;-62
2023/05/21 02:06:09;;;;;;;39.35;19.27;;;11.40;99.90;;;;;;5016712;28;20117;-61
2023/05/21 02:08:37;;;;;;;30.42;19.25;;;11.40;99.90;;;;;;4999074;28;20132;-62
2023/05/21 02:11:04;;;;;;;31.50;18.17;;;11.40;99.90;;;;;;4998572;28;20534;-62
2023/05/21 02:13:31;;;;;;;28.77;17.85;;;11.30;99.90;;;;;;5016543;28;20025;-62
2023/05/21 02:15:57;;;;;;;29.80;19.15;;;11.30;99.90;;;;;;5016508;28;20034;-62
2023/05/21 02:18:25;;;;;;;30.35;19.30;;;11.30;99.90;;;;;;4998775;28;20472;-62
2023/05/21 02:20:51;;;;;;;31.70;20.73;;;11.30;99.90;;;;;;4998887;28;20029;-62
2023/05/21 02:23:17;;;;;;;33.53;20.63;;;11.30;99.90;;;;;;5016238;28;20026;-62
2023/05/21 02:25:43;;;;;;;30.80;19.15;;;11.20;99.90;;;;;;5016099;28;20030;-62
2023/05/21 02:28:09;;;;;;;28.63;19.50;;;11.10;99.90;;;;;;5016347;28;20030;-62
2023/05/21 02:30:35;;;;;;;30.20;19.30;;;11.10;99.90;;;;;;5016281;28;20132;-61
2023/05/21 02:33:01;;;;;;;37.10;20.75;;;11.10;99.90;;;;;;5016426;28;20080;-61
2023/05/21 02:35:27;;;;;;;31.05;21.17;;;11.20;99.90;;;;;;5016077;28;20100;-62
2023/05/21 02:37:57;;;;;;;29.00;19.80;;;11.10;99.90;;;;;;5016132;28;20022;-62
2023/05/21 02:40:24;;;;;;;28.90;18.90;;;11.10;99.90;;;;;;4998140;28;20124;-61
2023/05/21 02:42:50;;;;;;;28.30;19.10;;;11.10;99.90;;;;;;5015981;28;20391;-62
2023/05/21 02:45:19;;;;;;;30.25;19.58;;;11.20;99.90;;;;;;4998329;28;20060;-62
2023/05/21 02:47:45;;;;;;;33.53;20.45;;;11.20;99.90;;;;;;4998247;28;20034;-62
2023/05/21 02:50:13;;;;;;;31.27;19.98;;;11.10;99.90;;;;;;4998296;28;20021;-62
2023/05/21 02:52:47;;;;;;;31.20;19.63;;;11.10;99.90;;;;;;4998114;28;20109;-62
2023/05/21 02:55:13;;;;;;;29.20;18.98;;;11.00;99.90;;;;;;5015779;28;20038;-61
2023/05/21 02:57:39;;;;;;;33.38;19.13;;;11.00;99.90;;;;;;5015882;28;20108;-62
2023/05/21 03:00:06;;;;;;;36.35;19.88;;;10.90;99.90;;;;;;5015750;28;20033;-62
2023/05/21 03:02:33;;;;;;;39.50;19.27;;;10.90;99.90;;;;;;4998062;28;20038;-62
2023/05/21 03:04:59;;;;;;;28.85;17.98;;;11.00;99.90;;;;;;5015453;28;20113;-61
2023/05/21 03:07:25;;;;;;;30.45;18.88;;;11.00;99.90;;;;;;5015451;28;20037;-62
2023/05/21 03:09:52;;;;;;;33.92;19.42;;;11.00;99.90;;;;;;4997763;28;20052;-62
2023/05/21 03:12:18;;;;;;;32.35;20.90;;;11.00;99.90;;;;;;4997851;28;20041;-62
2023/05/21 03:14:45;;;;;;;32.90;20.88;;;10.90;99.90;;;;;;4997684;28;20415;-61
2023/05/21 03:17:14;;;;;;;31.88;20.20;;;10.90;99.90;;;;;;4997689;28;20034;-61
2023/05/21 03:19:42;;;;;;;30.77;20.27;;;10.80;99.90;;;;;;5015431;28;20038;-62
2023/05/21 03:22:10;;;;;;;30.17;19.05;;;10.90;99.90;;;;;;5015269;28;20033;-62
2023/05/21 03:24:37;;;;;;;34.00;20.63;;;10.90;99.90;;;;;;5015304;28;20029;-61
2023/05/21 03:27:07;;;;;;;35.78;20.95;;;10.90;99.90;;;;;;4997376;28;20026;-62
2023/05/21 03:29:34;;;;;;;31.77;19.20;;;10.80;99.90;;;;;;5015171;28;20036;-61
2023/05/21 03:32:01;;;;;;;33.20;20.30;;;10.70;99.90;;;;;;4997484;28;20030;-62
2023/05/21 03:34:29;;;;;;;37.65;20.67;;;10.80;99.90;;;;;;4997402;28;20347;-61
2023/05/21 03:36:55;;;;;;;37.78;20.77;;;10.80;99.90;;;;;;4997466;28;20041;-62
2023/05/21 03:39:21;;;;;;;30.10;20.27;;;10.80;99.90;;;;;;4997494;28;20034;-62
2023/05/21 03:41:47;;;;;;;43.67;21.40;;;10.80;99.90;;;;;;5014979;28;20029;-62
2023/05/21 03:44:24;;;;;;;32.03;20.52;;;10.80;99.90;;;;;;4997371;28;20026;-62
2023/05/21 03:46:55;;;;;;;;;;;10.90;99.90;;;;;;4997426;28;20038;-62
2023/05/21 03:49:25;;;;;;;36.22;20.02;;;10.90;99.90;;;;;;4997289;28;19932;-62
2023/05/21 03:51:53;;;;;;;32.95;20.05;;;10.90;99.90;;;;;;4996570;28;20022;-62
2023/05/21 03:54:20;;;;;;;32.72;20.45;;;10.90;99.90;;;;;;4997166;28;20053;-62
2023/05/21 03:56:48;;;;;;;31.35;20.83;;;11.00;99.90;;;;;;4997207;28;20431;-62
2023/05/21 03:59:14;;;;;;;40.63;21.83;;;11.00;99.90;;;;;;4997032;28;20065;-62
2023/05/21 04:01:41;;;;;;;36.97;21.55;;;11.10;99.90;;;;;;4997085;28;20033;-61
2023/05/21 04:04:10;;;;;;;37.70;22.48;;;11.20;99.90;;;;;;4997008;28;20026;-61
2023/05/21 04:06:37;;;;;;;33.85;20.60;;;11.20;99.90;;;;;;4997003;28;20102;-62
2023/05/21 04:09:03;;;;;;;28.45;20.52;;;11.20;99.90;;;;;;4996800;28;20033;-62
2023/05/21 04:11:30;;;;;;;38.15;22.42;;;11.30;99.90;;;;;;4996808;28;20512;-62
2023/05/21 04:13:56;;;;;;;32.00;20.38;;;11.30;99.90;;;;;;5014455;28;20025;-62
2023/05/21 04:16:23;;;;;;;36.97;20.90;;;11.30;99.90;;;;;;5014663;28;20037;-62
2023/05/21 04:18:51;;;;;;;31.45;19.80;;;11.40;99.90;;;;;;4996864;28;20513;-62
2023/05/21 04:21:17;;;;;;;27.17;17.95;;;11.40;99.90;;;;;;4996889;28;20040;-62
2023/05/21 04:23:44;;;;;;;29.98;18.45;;;11.50;99.90;;;;;;4996847;28;20037;-62
2023/05/21 04:26:21;;;;;;;28.38;17.63;;;11.70;99.90;;;;;;4996659;28;20407;-62
2023/05/21 04:28:47;;;;;;;28.52;16.98;;;11.70;99.90;;;;;;4996853;28;20041;-61
2023/05/21 04:31:13;;;;;;;30.33;17.95;;;11.80;99.90;;;;;;4996966;28;20109;-61
2023/05/21 04:33:44;;;;;;;25.67;17.55;;;11.90;99.90;;;;;;4996819;28;20048;-62
2023/05/21 04:36:11;;;;;;;26.70;17.20;;;11.90;99.90;;;;;;4996769;28;20038;-62
2023/05/21 04:38:40;;;;;;;26.40;18.13;;;12.00;99.90;;;;;;4996909;28;20033;-62
2023/05/21 04:41:09;;;;;;;49.97;27.02;;;12.00;99.90;;;;;;4996676;28;20029;-62
2023/05/21 04:43:37;;;;;;;46.20;24.83;;;12.00;99.90;;;;;;5014466;28;20384;-62
2023/05/21 04:46:03;;;;;;;74.80;37.67;;;12.10;99.90;;;;;;4996483;28;20120;-62
2023/05/21 04:48:29;;;;;;;70.75;40.17;;;12.30;99.90;;;;;;4996688;28;20037;-61
2023/05/21 04:50:55;;;;;;;39.88;26.13;;;12.30;99.90;;;;;;5014328;28;20517;-62
2023/05/21 04:53:22;;;;;;;46.30;29.67;;;12.40;99.90;;;;;;5014220;28;20357;-62
2023/05/21 04:55:49;;;;;;;75.70;43.25;;;12.50;99.90;;;;;;4996684;28;20034;-62
2023/05/21 04:58:17;;;;;;;65.75;36.63;;;12.60;99.90;;;;;;4996664;28;20036;-62
2023/05/21 05:00:46;;;;;;;45.05;24.77;;;12.70;99.90;;;;;;4996637;28;20364;-62
2023/05/21 05:03:12;;;;;;;34.75;21.33;;;12.80;99.90;;;;;;4999461;28;20064;-62
2023/05/21 05:05:38;;;;;;;36.42;22.13;;;12.90;99.90;;;;;;5000302;28;20037;-62
2023/05/21 05:08:05;;;;;;;29.80;20.75;;;13.00;99.90;;;;;;4999970;28;20029;-62
2023/05/21 05:10:31;;;;;;;29.77;20.48;;;13.20;99.90;;;;;;4999823;28;20481;-62
2023/05/21 05:12:57;;;;;;;34.80;21.23;;;13.30;99.90;;;;;;5000220;28;20041;-62
2023/05/21 05:15:23;;;;;;;36.20;21.70;;;13.40;99.90;;;;;;4999985;28;20105;-62
2023/05/21 05:17:50;;;;;;;33.80;20.05;;;13.60;99.90;;;;;;4999959;28;20037;-62
2023/05/21 05:20:17;;;;;;;31.63;19.55;;;13.70;99.90;;;;;;5000009;28;20053;-63
2023/05/21 05:22:43;;;;;;;37.67;21.02;;;13.70;99.90;;;;;;4999839;28;20030;-62
2023/05/21 05:25:09;;;;;;;32.40;20.65;;;13.80;99.90;;;;;;4999900;28;20041;-62
2023/05/21 05:27:35;;;;;;;31.77;21.80;;;14.00;99.90;;;;;;4999713;28;20491;-62
2023/05/21 05:30:02;;;;;;;33.80;20.55;;;14.10;99.90;;;;;;4999608;28;20160;-62
2023/05/21 05:32:30;;;;;;;32.45;21.30;;;14.20;99.90;;;;;;4999795;28;20053;-62
2023/05/21 05:34:56;;;;;;;33.65;22.38;;;14.30;99.90;;;;;;5017435;28;20041;-62
2023/05/21 05:37:22;;;;;;;30.80;21.35;;;14.50;99.90;;;;;;4999527;28;20084;-62
2023/05/21 05:39:48;;;;;;;30.38;20.05;;;14.60;99.90;;;;;;4999599;28;20377;-63
2023/05/21 05:42:14;;;;;;;34.25;20.40;;;14.80;99.90;;;;;;4999667;28;20033;-62
2023/05/21 05:44:40;;;;;;;32.00;20.05;;;14.90;99.90;;;;;;5016994;28;20497;-62
2023/05/21 05:47:09;;;;;;;28.88;20.35;;;14.90;99.90;;;;;;4999444;28;20427;-62
2023/05/21 05:49:37;;;;;;;32.92;18.65;;;14.90;99.90;;;;;;4999496;28;20502;-62
2023/05/21 05:52:03;;;;;;;28.10;18.45;;;15.00;99.90;;;;;;4999258;28;20030;-62
2023/05/21 05:54:29;;;;;;;27.42;18.55;;;15.20;99.90;;;;;;5016973;28;20490;-62
2023/05/21 05:56:55;;;;;;;27.20;18.42;;;15.30;99.90;;;;;;4999383;28;20056;-62
2023/05/21 05:59:22;;;;;;;36.88;18.50;;;15.50;99.90;;;;;;4999088;28;20030;-62
2023/05/21 06:01:50;;;;;;;25.88;18.60;;;15.70;99.90;;;;;;4999173;28;20038;-61
2023/05/21 06:04:16;;;;;;;26.95;16.83;;;15.90;99.90;;;;;;4999017;28;20030;-62
2023/05/21 06:06:42;;;;;;;29.48;17.98;;;16.00;99.90;;;;;;4998948;28;20395;-62
2023/05/21 06:09:08;;;;;;;31.35;18.65;;;16.20;99.90;;;;;;4998964;28;20084;-62
2023/05/21 06:11:34;;;;;;;28.40;17.50;;;16.40;99.90;;;;;;4998815;28;20053;-62
2023/05/21 06:14:00;;;;;;;30.30;18.33;;;16.50;99.90;;;;;;4998138;28;20060;-62
2023/05/21 06:16:27;;;;;;;33.33;18.42;;;16.60;99.90;;;;;;4998865;28;20030;-62
2023/05/21 06:18:53;;;;;;;30.67;18.48;;;16.80;99.90;;;;;;4998884;28;20030;-63
2023/05/21 06:21:20;;;;;;;31.30;19.25;;;16.90;99.90;;;;;;4998829;28;20454;-62
2023/05/21 06:23:46;;;;;;;34.83;18.67;;;16.90;99.90;;;;;;4998885;28;20033;-62
2023/05/21 06:26:12;;;;;;;30.40;18.02;;;17.10;99.90;;;;;;5016128;28;20033;-62
2023/05/21 06:28:39;;;;;;;27.38;17.83;;;17.20;99.90;;;;;;4998761;28;20036;-62
2023/05/21 06:31:07;;;;;;;27.33;19.05;;;17.20;99.90;;;;;;4998785;28;20084;-62
2023/05/21 06:33:34;;;;;;;29.83;18.15;;;17.30;99.90;;;;;;4998317;28;20033;-62
2023/05/21 06:36:00;;;;;;;34.05;21.00;;;17.60;99.90;;;;;;4998521;28;20038;-63
2023/05/21 06:38:27;;;;;;;30.92;20.23;;;17.70;99.90;;;;;;4998645;28;20034;-63
2023/05/21 06:40:53;;;;;;;32.90;21.52;;;17.90;99.90;;;;;;4998432;28;20113;-62
2023/05/21 06:43:36;;;;;;;29.60;19.35;;;18.00;99.90;;;;;;4998269;28;20439;-62
2023/05/21 06:46:37;;;;;;;31.58;19.05;;;18.20;99.90;;;;;;4917092;29;20036;-62
2023/05/21 06:49:06;;;;;;;33.15;20.55;;;18.50;99.90;;;;;;4979987;28;20100;-63
2023/05/21 06:51:33;;;;;;;35.50;19.55;;;18.70;99.90;;;;;;4998324;28;20037;-62
2023/05/21 06:53:59;;;;;;;27.27;18.73;;;18.90;99.90;;;;;;4998317;28;20125;-62
2023/05/21 06:56:27;;;;;;;29.90;17.60;;;19.10;99.90;;;;;;4997964;28;20030;-62
2023/05/21 06:58:54;;;;;;;24.27;16.75;;;19.20;99.90;;;;;;4998177;28;20036;-63
2023/05/21 07:01:23;;;;;;;25.50;16.92;;;19.40;99.90;;;;;;4998031;28;20083;-63
2023/05/21 07:03:49;;;;;;;28.52;16.60;;;19.70;99.90;;;;;;4998162;28;20040;-63
2023/05/21 07:06:15;;;;;;;26.50;15.82;;;19.90;99.90;;;;;;5015493;28;20137;-62
2023/05/21 07:08:41;;;;;;;27.70;15.75;;;20.20;99.90;;;;;;4997872;28;20413;-62
2023/05/21 07:11:08;;;;;;;25.65;16.10;;;20.50;99.90;;;;;;4997688;28;20477;-62
2023/05/21 07:13:35;;;;;;;20.83;13.70;;;20.90;99.80;;;;;;4997823;28;20033;-63
2023/05/21 07:16:01;;;;;;;24.88;14.25;;;21.30;99.10;;;;;;4997793;28;20132;-63
2023/05/21 07:18:27;;;;;;;22.75;13.98;;;21.70;97.20;;;;;;4997583;28;20026;-63
2023/05/21 07:20:53;;;;;;;23.30;12.77;;;21.90;95.60;;;;;;4997804;28;20034;-62
2023/05/21 07:23:20;;;;;;;17.98;11.63;;;22.20;92.90;;;;;;4997548;28;20167;-63
2023/05/21 07:25:46;;;;;;;15.30;11.85;;;22.50;92.50;;;;;;4997400;28;20061;-63
2023/05/21 07:28:13;;;;;;;19.90;11.95;;;22.70;88.60;;;;;;4997621;28;20537;-63
2023/05/21 07:30:39;;;;;;;18.23;11.70;;;23.10;89.30;;;;;;5015260;28;20106;-63
2023/05/21 07:33:11;;;;;;;16.35;10.98;;;23.00;85.20;;;;;;4997624;28;20084;-63
2023/05/21 07:35:37;;;;;;;19.20;11.45;;;23.20;91.00;;;;;;4997680;28;20033;-63
2023/05/21 07:38:03;;;;;;;13.80;10.50;;;23.70;84.60;;;;;;4997257;28;20498;-62
2023/05/21 07:40:29;;;;;;;19.08;11.05;;;24.00;84.10;;;;;;4997396;28;20025;-63
2023/05/21 07:42:55;;;;;;;19.08;10.82;;;23.80;79.80;;;;;;4997536;28;20454;-64
2023/05/21 07:45:25;;;;;;;17.98;11.02;;;24.20;82.50;;;;;;4997050;28;20431;-63
2023/05/21 07:47:51;;;;;;;16.67;9.55;;;24.80;81.40;;;;;;4997332;28;20030;-63
2023/05/21 07:50:17;;;;;;;17.02;10.20;;;25.20;79.10;;;;;;4997320;28;20026;-63
2023/05/21 07:52:43;;;;;;;14.50;9.48;;;25.40;74.20;;;;;;4997148;28;20048;-63
2023/05/21 07:55:10;;;;;;;15.23;9.38;;;25.40;74.00;;;;;;4997294;28;20481;-63
2023/05/21 07:57:37;;;;;;;13.05;8.82;;;25.50;72.40;;;;;;4997287;28;20041;-64
2023/05/21 08:00:11;;;;;;;12.88;9.05;;;25.80;69.40;;;;;;4996957;28;20052;-64
2023/05/21 08:02:51;;;;;;;16.95;8.45;;;25.90;66.50;;;;;;4997237;28;20040;-64
2023/05/21 08:05:17;;;;;;;13.95;9.30;;;26.10;66.20;;;;;;4997143;28;20033;-64
2023/05/21 08:07:43;;;;;;;16.05;10.05;;;26.10;64.20;;;;;;4996940;28;20148;-64
2023/05/21 08:10:10;;;;;;;12.60;8.38;;;25.60;63.00;;;;;;4996881;28;20116;-64
2023/05/21 08:12:36;;;;;;;14.80;8.82;;;26.30;66.50;;;;;;4996946;28;20061;-64
2023/05/21 08:15:03;;;;;;;15.23;8.65;;;26.50;64.10;;;;;;4996974;28;20026;-64
2023/05/21 08:17:31;;;;;;;10.73;6.97;;;25.30;63.30;;;;;;4996817;28;20400;-64
2023/05/21 08:19:57;;;;;;;13.30;5.97;;;25.90;61.00;;;;;;5014595;28;20145;-64
2023/05/21 08:22:23;;;;;;;11.05;5.32;;;25.10;57.40;;;;;;4996862;28;20030;-64
2023/05/21 08:24:49;;;;;;;16.58;5.95;;;26.10;57.70;;;;;;4996877;28;20052;-64
2023/05/21 08:27:15;;;;;;;13.10;6.07;;;26.80;57.90;;;;;;5014395;28;20434;-64
2023/05/21 08:29:42;;;;;;;11.23;5.57;;;27.20;55.10;;;;;;4996751;28;20487;-64
2023/05/21 08:32:08;;;;;;;7.60;5.47;;;27.10;52.10;;;;;;4996939;28;20022;-64
2023/05/21 08:34:35;;;;;;;15.15;5.90;;;26.20;51.70;;;;;;4996827;28;20100;-64
2023/05/21 08:37:19;;;;;;;8.38;5.57;;;26.30;51.80;;;;;;4998476;28;20084;-64
2023/05/21 08:39:58;;;;;;;13.98;6.43;;;27.00;53.00;;;;;;5000765;28;20034;-64
2023/05/21 08:42:36;;;;;;;11.35;6.25;;;27.20;55.20;;;;;;5000553;28;20041;-64
2023/05/21 08:45:05;;;;;;;12.10;6.13;;;27.40;53.80;;;;;;5000496;28;20042;-64
2023/05/21 08:47:34;;;;;;;12.23;6.38;;;26.70;52.10;;;;;;5000583;28;20030;-64
2023/05/21 08:50:09;;;;;;;9.13;5.07;;;27.30;53.90;;;;;;5000390;28;20026;-64
2023/05/21 08:52:36;;;;;;;10.00;6.07;;;27.10;50.00;;;;;;5000554;28;20193;-64
2023/05/21 08:55:06;;;;;;;9.52;5.40;;;27.30;49.30;;;;;;5000420;28;20057;-64
2023/05/21 08:57:33;;;;;;;8.68;5.60;;;27.30;51.20;;;;;;5000375;28;20065;-64
2023/05/21 09:00:05;;;;;;;8.85;5.32;;;26.50;49.10;;;;;;5000401;28;20026;-64
2023/05/21 09:02:35;;;;;;;13.48;6.35;;;26.60;49.80;;;;;;5000128;28;20479;-64
2023/05/21 09:05:02;;;;;;;12.00;5.55;;;26.70;48.50;;;;;;5000211;28;20091;-64
2023/05/21 09:07:33;;;;;;;9.77;5.55;;;27.30;54.10;;;;;;5000145;28;20406;-64
2023/05/21 09:10:26;;;;;;;10.90;5.88;;;26.70;51.10;;;;;;4999864;28;20034;-64
2023/05/21 09:12:52;;;;;;;9.60;5.70;;;25.70;53.10;;;;;;5000280;28;20064;-64
2023/05/21 09:15:19;;;;;;;13.20;5.82;;;26.20;52.60;;;;;;5000198;28;20038;-64
2023/05/21 09:17:47;;;;;;;11.18;5.63;;;26.10;50.50;;;;;;4999975;28;20034;-64
2023/05/21 09:20:32;;;;;;;12.82;5.82;;;26.10;49.40;;;;;;4999947;28;20030;-64
2023/05/21 09:23:06;;;;;;;9.43;5.50;;;26.30;50.00;;;;;;4999946;28;20038;-64
2023/05/21 09:25:36;;;;;;;11.20;5.40;;;25.30;50.40;;;;;;4999681;28;20037;-64
2023/05/21 09:28:11;;;;;;;9.65;5.22;;;25.60;50.90;;;;;;4996763;28;20058;-64
2023/05/21 09:30:46;;;;;;;13.63;5.50;;;26.20;54.60;;;;;;4980437;28;20026;-64
2023/05/21 09:33:24;;;;;;;11.73;5.60;;;26.60;53.90;;;;;;4996394;28;20034;-64
2023/05/21 09:35:50;;;;;;;8.80;5.13;;;26.80;50.40;;;;;;4980117;28;20098;-64
2023/05/21 09:38:21;;;;;;;12.40;5.22;;;27.00;50.80;;;;;;4996402;28;20387;-64
2023/05/21 09:40:47;;;;;;;11.20;6.10;;;27.00;49.70;;;;;;4980103;28;20337;-64
2023/05/21 09:43:15;;;;;;;11.73;5.53;;;26.70;52.80;;;;;;4996212;28;20288;-64
2023/05/21 09:45:51;;;;;;;16.63;5.82;;;26.30;52.70;;;;;;4993616;28;20041;-64
2023/05/21 09:48:35;;;;;;;10.80;5.78;;;25.90;54.60;;;;;;5015801;28;20479;-64
2023/05/21 09:51:20;;;;;;;8.25;5.07;;;26.40;52.00;;;;;;4983370;28;20026;-64
2023/05/21 09:53:52;;;;;;;11.18;5.10;;;27.10;51.50;;;;;;5016792;28;20408;-64
2023/05/21 09:56:23;;;;;;;9.45;5.35;;;26.70;47.40;;;;;;5017000;28;20034;-64
2023/05/21 09:58:59;;;;;;;6.60;5.20;;;26.40;48.70;;;;;;5016803;28;20054;-64
2023/05/21 10:01:25;;;;;;;13.00;5.57;;;26.30;48.00;;;;;;5016912;28;20036;-64
2023/05/21 10:03:56;;;;;;;9.70;5.13;;;26.80;50.40;;;;;;5016723;28;20073;-64
2023/05/21 10:06:27;;;;;;;9.52;4.82;;;27.60;50.10;;;;;;5016779;28;20030;-64
2023/05/21 10:08:56;;;;;;;10.23;5.22;;;28.00;52.80;;;;;;5016485;28;20110;-63
2023/05/21 10:11:25;;;;;;;9.55;5.07;;;28.40;49.80;;;;;;4998827;28;20057;-64
2023/05/21 10:14:04;;;;;;;9.35;5.20;;;28.70;50.30;;;;;;5016689;28;20041;-64
2023/05/21 10:16:33;;;;;;;13.00;5.60;;;28.40;47.90;;;;;;5016293;28;20453;-64
2023/05/21 10:18:59;;;;;;;8.55;5.68;;;28.00;48.10;;;;;;5016510;28;20033;-64
2023/05/21 10:21:26;;;;;;;11.65;5.60;;;28.00;48.30;;;;;;5016400;28;20343;-64
2023/05/21 10:23:55;;;;;;;9.25;5.30;;;27.30;46.50;;;;;;5016325;28;20088;-64
2023/05/21 10:26:22;;;;;;;8.10;5.70;;;27.30;46.20;;;;;;5016166;28;20427;-64
2023/05/21 10:28:50;;;;;;;10.48;5.35;;;27.50;47.30;;;;;;5016281;28;20018;-64
2023/05/21 10:31:16;;;;;;;10.40;5.75;;;27.20;47.30;;;;;;5016203;28;20030;-64
2023/05/21 10:33:43;;;;;;;14.38;6.18;;;27.40;48.90;;;;;;5016260;28;20021;-63
2023/05/21 10:36:09;;;;;;;13.25;5.35;;;28.00;49.10;;;;;;5016120;28;20033;-63
2023/05/21 10:38:37;;;;;;;12.05;6.10;;;28.10;49.40;;;;;;5015950;28;20026;-63
2023/05/21 10:41:05;;;;;;;13.60;6.10;;;28.80;45.90;;;;;;5016011;28;20407;-63
2023/05/21 10:43:56;;;;;;;10.85;5.57;;;28.70;47.20;;;;;;5015903;28;20117;-63
2023/05/21 10:46:34;;;;;;;10.60;5.70;;;29.00;47.40;;;;;;5015870;28;20030;-64
2023/05/21 10:49:24;;;;;;;14.95;5.47;;;29.30;47.90;;;;;;5015919;28;20049;-64
2023/05/21 10:52:04;;;;;;;9.18;5.50;;;29.10;49.00;;;;;;5015729;28;20160;-64
2023/05/21 10:54:36;;;;;;;;;;;28.70;48.00;;;;;;5016282;28;20030;-64
2023/05/21 10:57:11;;;;;;;10.00;5.63;;;28.60;46.10;;;;;;5015740;28;19920;-64
2023/05/21 10:59:44;;;;;;;12.90;7.68;;;28.10;45.80;;;;;;5015472;28;20030;-64
2023/05/21 11:02:12;;;;;;;9.93;6.70;;;27.70;46.70;;;;;;5015569;28;20038;-64
2023/05/21 11:04:42;;;;;;;11.27;6.10;;;27.70;48.60;;;;;;5015461;28;20029;-64
2023/05/21 11:07:08;;;;;;;11.53;5.80;;;27.60;47.40;;;;;;5015651;28;20124;-64
2023/05/21 11:09:34;;;;;;;11.20;6.05;;;27.10;47.20;;;;;;5015252;28;20287;-64
2023/05/21 11:12:01;;;;;;;8.80;5.32;;;26.70;45.20;;;;;;5015210;28;20116;-64
2023/05/21 11:14:37;;;;;;;15.93;6.55;;;26.00;46.00;;;;;;5015436;28;20045;-64
2023/05/21 11:17:03;;;;;;;14.23;8.10;;;26.00;48.80;;;;;;5015378;28;20503;-64
2023/05/21 11:19:39;;;;;;;31.10;13.38;;;25.90;51.30;;;;;;5015302;28;20025;-64
2023/05/21 11:22:20;;;;;;;18.65;8.20;;;25.50;50.60;;;;;;5015289;28;20038;-64
2023/05/21 11:24:47;;;;;;;10.80;6.90;;;25.30;52.90;;;;;;5015414;28;20042;-64
2023/05/21 11:27:28;;;;;;;13.32;6.53;;;25.20;52.80;;;;;;5014963;28;20033;-64
2023/05/21 11:29:55;;;;;;;13.75;6.57;;;25.00;52.80;;;;;;4997625;28;20030;-64
2023/05/21 11:32:22;;;;;;;8.38;5.13;;;24.60;52.70;;;;;;5015168;28;20025;-64
2023/05/21 11:34:49;;;;;;;16.30;6.22;;;23.90;51.10;;;;;;5015010;28;20539;-64
2023/05/21 11:37:23;;;;;;;11.45;5.93;;;24.10;51.90;;;;;;5015246;28;20026;-64
2023/05/21 11:39:50;;;;;;;9.35;5.90;;;24.10;53.10;;;;;;5015008;28;20068;-64
2023/05/21 11:42:33;;;;;;;7.70;5.60;;;23.70;55.90;;;;;;5015118;28;20041;-64
2023/05/21 11:45:01;;;;;;;11.48;6.57;;;23.60;54.90;;;;;;5014990;28;20061;-64
2023/05/21 11:47:29;;;;;;;10.98;6.30;;;23.10;53.00;;;;;;4997272;28;20030;-64
2023/05/21 11:49:58;;;;;;;13.77;6.30;;;23.00;54.20;;;;;;5015034;28;20030;-64
2023/05/21 11:52:25;;;;;;;9.02;6.70;;;22.90;54.80;;;;;;5015106;28;20034;-64
2023/05/21 11:54:56;;;;;;;7.22;5.70;;;22.90;57.70;;;;;;5014892;28;20033;-64
2023/05/21 11:57:24;;;;;;;;;;;22.40;59.00;;;;;;5015286;28;20033;-64
2023/05/21 11:59:50;;;;;;;13.18;7.00;;;22.00;63.90;;;;;;5014776;28;19913;-64
2023/05/21 12:02:19;;;;;;;8.80;5.93;;;21.10;69.20;;;;;;5014786;28;20411;-63
2023/05/21 12:04:47;;;;;;;16.88;7.07;;;20.00;76.20;;;;;;5014727;28;20026;-63
2023/05/21 12:07:14;;;;;;;14.50;7.72;;;19.80;79.40;;;;;;5014652;28;20028;-63
2023/05/21 12:09:48;;;;;;;16.20;7.97;;;19.50;87.30;;;;;;5014569;28;20426;-63
2023/05/21 12:12:17;;;;;;;16.80;8.63;;;19.40;94.80;;;;;;5013658;28;20050;-63
2023/05/21 12:14:48;;;;;;;17.48;9.02;;;19.30;98.60;;;;;;5014735;28;20101;-63
2023/05/21 12:17:21;;;;;;;16.80;8.95;;;19.30;99.90;;;;;;5014320;28;20034;-63
2023/05/21 12:19:50;;;;;;;14.80;8.15;;;19.60;99.90;;;;;;5014534;28;20038;-63
2023/05/21 12:22:16;;;;;;;17.85;8.75;;;20.20;99.90;;;;;;5014550;28;20288;-63
2023/05/21 12:24:44;;;;;;;11.05;7.30;;;20.80;99.90;;;;;;5014396;28;20237;-64
2023/05/21 12:27:11;;;;;;;22.85;9.02;;;21.60;99.90;;;;;;5014557;28;20034;-64
2023/05/21 12:29:42;;;;;;;18.00;8.88;;;22.00;99.90;;;;;;5014286;28;20022;-64
2023/05/21 12:32:11;;;;;;;21.77;9.52;;;22.40;99.90;;;;;;5014561;28;20106;-64
2023/05/21 12:34:51;;;;;;;14.52;8.25;;;22.50;99.90;;;;;;5014494;28;20026;-64
2023/05/21 12:37:21;;;;;;;29.08;11.43;;;22.20;99.90;;;;;;5014296;28;20041;-64
2023/05/21 12:39:49;;;;;;;19.55;9.40;;;22.30;99.90;;;;;;5014418;28;20026;-64
2023/05/21 12:42:16;;;;;;;17.02;8.15;;;22.30;99.90;;;;;;5014337;28;20038;-64